Predator — ZCTY5 — position and weather

sailwx.info

Track history (hours):
 
Tides and Currents Weather Stations Pressure Air Temp Water Temp Dewpoint Dewpoint Depression Visibility Wind Speed Wind Dir Waves Ship Positions

Predator

Last reported at 2014-Jul-24 13:14 UTC. Time now 2014-Jul-24 22:58 UTC.
Position N 43°41' E 007°26'.

Length 73 m.

Type: Cargo ship. MMSI: 319300000.

Date/timePositionNaut miles runAvg speedWind from/ knotsBaromVisibWave heightAir tempDewpointWater temp
2014-Jul-24 13:14N 43°41' E 007°26'  
2014-Jul-17 17:29N 43°16' E 006°37'9 1.0
2014-Jul-17 08:33N 43°08' E 006°33'9 8.5
2014-Jul-17 07:32N 43°16' E 006°37'0 0.1
2014-Jul-17 06:26N 43°16' E 006°37'0 0.0
2014-Jul-17 05:32N 43°16' E 006°37'0 0.0
2014-Jul-17 04:32N 43°16' E 006°37'0 0.0
2014-Jul-17 03:29N 43°16' E 006°37'0 0.0
2014-Jul-17 02:29N 43°16' E 006°37'0 0.0
2014-Jul-17 01:29N 43°16' E 006°37'0 0.0
2014-Jul-17 00:26N 43°16' E 006°37'0 0.0
2014-Jul-16 23:32N 43°16' E 006°37'0 0.0
2014-Jul-16 21:26N 43°16' E 006°37'0 0.0
2014-Jul-16 20:30N 43°16' E 006°37'0 0.0
2014-Jul-16 19:22N 43°16' E 006°37'0 0.0
2014-Jul-16 18:28N 43°16' E 006°37'0 0.0
2014-Jul-16 17:30N 43°16' E 006°37'8 0.9
2014-Jul-16 08:29N 43°09' E 006°39'8 8.3
2014-Jul-16 07:33N 43°16' E 006°37'0 0.0
2014-Jul-16 06:29N 43°16' E 006°37'0 0.0
2014-Jul-16 05:29N 43°16' E 006°37'0 0.0
2014-Jul-16 04:20N 43°16' E 006°37'0 0.0
2014-Jul-16 02:26N 43°16' E 006°37'0 0.0
2014-Jul-15 23:26N 43°16' E 006°37'0 0.0
2014-Jul-15 22:32N 43°16' E 006°37'0 0.0
2014-Jul-15 21:20N 43°16' E 006°37'0 0.0
2014-Jul-15 20:20N 43°16' E 006°37'0 0.0
2014-Jul-15 19:17N 43°16' E 006°37'0 0.0
2014-Jul-15 18:33N 43°16' E 006°37'0 0.0
2014-Jul-15 17:23N 43°16' E 006°37'1214.7
2014-Jul-15 16:33N 43°22' E 006°52'2019.7
2014-Jul-15 15:32N 43°32' E 007°16'39 2.1
2014-Jul-14 20:29N 43°53' E 008°02'  
Track history (hours):
 
Tides and Currents Weather Stations Pressure Air Temp Water Temp Dewpoint Dewpoint Depression Visibility Wind Speed Wind Dir Waves Ship Positions

Predator

Last reported at 2014-Jul-24 13:14 UTC. Time now 2014-Jul-24 22:58 UTC.
Position N 43°41' E 007°26'.

Length 73 m.

Type: Cargo ship. MMSI: 319300000.

Date/timePositionNaut miles runAvg speedWind from/ knotsBaromVisibWave heightAir tempDewpointWater temp
2014-Jul-24 13:14N 43°41' E 007°26'  
2014-Jul-17 17:29N 43°16' E 006°37'9 1.0
2014-Jul-17 08:33N 43°08' E 006°33'9 8.5
2014-Jul-17 07:32N 43°16' E 006°37'0 0.1
2014-Jul-17 06:26N 43°16' E 006°37'0 0.0
2014-Jul-17 05:32N 43°16' E 006°37'0 0.0
2014-Jul-17 04:32N 43°16' E 006°37'0 0.0
2014-Jul-17 03:29N 43°16' E 006°37'0 0.0
2014-Jul-17 02:29N 43°16' E 006°37'0 0.0
2014-Jul-17 01:29N 43°16' E 006°37'0 0.0
2014-Jul-17 00:26N 43°16' E 006°37'0 0.0
2014-Jul-16 23:32N 43°16' E 006°37'0 0.0
2014-Jul-16 21:26N 43°16' E 006°37'0 0.0
2014-Jul-16 20:30N 43°16' E 006°37'0 0.0
2014-Jul-16 19:22N 43°16' E 006°37'0 0.0
2014-Jul-16 18:28N 43°16' E 006°37'0 0.0
2014-Jul-16 17:30N 43°16' E 006°37'8 0.9
2014-Jul-16 08:29N 43°09' E 006°39'8 8.3
2014-Jul-16 07:33N 43°16' E 006°37'0 0.0
2014-Jul-16 06:29N 43°16' E 006°37'0 0.0
2014-Jul-16 05:29N 43°16' E 006°37'0 0.0
2014-Jul-16 04:20N 43°16' E 006°37'0 0.0
2014-Jul-16 02:26N 43°16' E 006°37'0 0.0
2014-Jul-15 23:26N 43°16' E 006°37'0 0.0
2014-Jul-15 22:32N 43°16' E 006°37'0 0.0
2014-Jul-15 21:20N 43°16' E 006°37'0 0.0
2014-Jul-15 20:20N 43°16' E 006°37'0 0.0
2014-Jul-15 19:17N 43°16' E 006°37'0 0.0
2014-Jul-15 18:33N 43°16' E 006°37'0 0.0
2014-Jul-15 17:23N 43°16' E 006°37'1214.7
2014-Jul-15 16:33N 43°22' E 006°52'2019.7
2014-Jul-15 15:32N 43°32' E 007°16'39 2.1
2014-Jul-14 20:29N 43°53' E 008°02'  

Dump ship's entire track history